Time;durP1;ratioP1;P1;durP2;ratioP2;P2;SDS_P1;SDS_P2;PMS_P1;PMS_P2;Temp;Humidity;BMP_temperature;BMP_pressure;BME280_temperature;BME280_humidity;BME280_pressure;Samples;Min_cycle;Max_cycle;Signal;HPM_P1;HPM_P2
2024/01/02 00:01:26;;;;;;;4.00;2.20;;;;;;;3.10;80.16;95258.61;110596;1274;22187;-77
2024/01/02 00:03:54;;;;;;;4.60;2.10;;;;;;;3.10;79.94;95258.78;110516;1274;22123;-77
2024/01/02 00:06:23;;;;;;;3.40;1.90;;;;;;;3.04;79.83;95261.54;110547;1274;22211;-77
2024/01/02 00:08:51;;;;;;;3.20;2.20;;;;;;;2.94;79.72;95263.58;110559;1274;22196;-77
2024/01/02 00:11:20;;;;;;;3.90;1.90;;;;;;;2.87;79.75;95260.75;110594;1274;22172;-77
2024/01/02 00:13:48;;;;;;;3.10;1.70;;;;;;;2.77;79.49;95266.08;110558;1274;22196;-77
2024/01/02 00:16:17;;;;;;;3.20;1.70;;;;;;;2.60;79.40;95263.70;110163;1274;544838;-78
2024/01/02 00:18:45;;;;;;;3.80;2.00;;;;;;;2.49;79.71;95267.27;110594;1274;22157;-77
2024/01/02 00:21:14;;;;;;;3.90;2.20;;;;;;;2.40;79.69;95272.09;110532;1274;22419;-77
2024/01/02 00:23:42;;;;;;;4.10;2.20;;;;;;;2.27;79.65;95275.10;110420;1274;22183;-77
2024/01/02 00:26:10;;;;;;;4.10;2.10;;;;;;;2.17;79.93;95280.92;110524;1274;22132;-77
2024/01/02 00:28:39;;;;;;;4.40;2.10;;;;;;;2.09;80.08;95287.79;110571;1260;22616;-77
2024/01/02 00:31:08;;;;;;;3.20;2.00;;;;;;;2.13;80.43;95288.52;110528;1274;23014;-78
2024/01/02 00:33:36;;;;;;;2.40;1.70;;;;;;;2.17;80.56;95289.24;110506;1274;22099;-77
2024/01/02 00:36:09;;;;;;;3.50;1.90;;;;;;;2.17;80.39;95288.55;110591;1274;22275;-77
2024/01/02 00:38:38;;;;;;;4.30;2.10;;;;;;;2.16;80.61;95281.95;110485;1274;22281;-77
2024/01/02 00:41:07;;;;;;;5.20;2.20;;;;;;;2.19;80.37;95285.77;110552;1274;22148;-77
2024/01/02 00:43:35;;;;;;;4.90;2.00;;;;;;;2.19;80.25;95282.84;110526;1274;22126;-77
2024/01/02 00:46:04;;;;;;;5.00;2.40;;;;;;;2.21;80.36;95286.15;110568;1274;22121;-77
2024/01/02 00:48:32;;;;;;;4.50;2.20;;;;;;;2.26;80.34;95288.28;110509;1274;22189;-77
2024/01/02 00:51:01;;;;;;;4.80;2.30;;;;;;;2.32;80.48;95287.29;110553;1274;22125;-77
2024/01/02 00:53:29;;;;;;;6.10;1.90;;;;;;;2.37;80.33;95286.98;110590;1274;22111;-76
2024/01/02 00:55:58;;;;;;;4.30;1.90;;;;;;;2.43;80.22;95280.61;110504;1274;22205;-77
2024/01/02 00:58:26;;;;;;;6.00;2.30;;;;;;;2.46;80.18;95280.10;110497;1274;22168;-77
2024/01/02 01:00:55;;;;;;;3.80;1.80;;;;;;;2.47;80.23;95279.92;110499;1259;22177;-77
2024/01/02 01:03:23;;;;;;;5.80;2.80;;;;;;;2.51;80.28;95279.45;110545;1274;22347;-77
2024/01/02 01:05:51;;;;;;;3.30;1.90;;;;;;;2.59;80.35;95274.81;110504;1274;22133;-77
2024/01/02 01:08:19;;;;;;;7.10;2.20;;;;;;;2.68;80.42;95272.44;110585;1274;22241;-77
2024/01/02 01:10:48;;;;;;;5.50;2.20;;;;;;;2.76;80.20;95271.98;110557;1274;22305;-77
2024/01/02 01:13:16;;;;;;;4.50;2.10;;;;;;;2.82;79.97;95272.36;110525;1274;22135;-77
2024/01/02 01:15:45;;;;;;;4.80;2.40;;;;;;;2.87;79.90;95265.80;110492;1274;22133;-77
2024/01/02 01:18:13;;;;;;;8.90;2.40;;;;;;;2.90;79.78;95269.45;110537;1267;22132;-77
2024/01/02 01:20:42;;;;;;;2.90;2.00;;;;;;;2.91;79.75;95272.41;110517;1270;22110;-77
2024/01/02 01:23:10;;;;;;;4.30;1.80;;;;;;;2.90;79.37;95273.10;110577;1274;22113;-76
2024/01/02 01:25:38;;;;;;;4.00;1.90;;;;;;;2.89;78.87;95273.09;110544;1274;22850;-78
2024/01/02 01:28:07;;;;;;;5.50;2.50;;;;;;;2.92;78.69;95273.47;110437;1274;22776;-77
2024/01/02 01:30:35;;;;;;;4.20;2.60;;;;;;;2.90;78.13;95273.09;110428;1274;22118;-77
2024/01/02 01:33:04;;;;;;;3.70;2.00;;;;;;;2.88;78.35;95272.73;110523;1274;22260;-77
2024/01/02 01:35:33;;;;;;;6.40;2.70;;;;;;;2.86;78.22;95276.89;110594;1274;22806;-77
2024/01/02 01:38:02;;;;;;;5.30;2.40;;;;;;;2.82;78.36;95272.70;110624;1274;22138;-77
2024/01/02 01:40:30;;;;;;;5.00;2.30;;;;;;;2.75;78.40;95271.98;110573;1274;23032;-77
2024/01/02 01:42:58;;;;;;;5.50;2.30;;;;;;;2.72;78.25;95266.39;110530;1274;22365;-77
2024/01/02 01:45:26;;;;;;;4.60;2.40;;;;;;;2.71;78.30;95265.36;110603;1274;22116;-77
2024/01/02 01:47:55;;;;;;;5.00;2.20;;;;;;;2.67;78.25;95261.66;110529;1274;22101;-77
2024/01/02 01:50:24;;;;;;;3.30;2.20;;;;;;;2.63;78.36;95261.48;110458;1274;22285;-77
2024/01/02 01:52:52;;;;;;;5.40;2.50;;;;;;;2.59;78.58;95261.79;110543;1274;22132;-77
2024/01/02 01:55:20;;;;;;;3.30;2.30;;;;;;;2.56;78.71;95263.52;110538;1274;22196;-77
2024/01/02 01:57:50;;;;;;;3.60;1.90;;;;;;;2.54;78.54;95262.63;110515;1274;22932;-77
2024/01/02 02:00:19;;;;;;;4.60;2.00;;;;;;;2.53;78.84;95259.83;110542;1274;22891;-77
2024/01/02 02:02:48;;;;;;;2.80;1.80;;;;;;;2.49;78.96;95250.80;110470;1273;22137;-77
2024/01/02 02:05:17;;;;;;;4.90;1.80;;;;;;;2.47;79.16;95252.34;110602;1274;22110;-77
2024/01/02 02:07:46;;;;;;;2.70;1.50;;;;;;;2.45;79.13;95256.66;110558;1274;22388;-77
2024/01/02 02:10:15;;;;;;;4.10;1.80;;;;;;;2.41;79.17;95260.30;110560;1274;22743;-77
2024/01/02 02:12:43;;;;;;;3.80;1.60;;;;;;;2.37;79.73;95265.98;110533;1274;22148;-78
2024/01/02 02:15:11;;;;;;;6.90;2.30;;;;;;;2.34;79.62;95266.83;110597;1274;22135;-77
2024/01/02 02:17:45;;;;;;;4.60;1.40;;;;;;;2.30;79.80;95272.68;110536;1274;22194;-77
2024/01/02 02:20:14;;;;;;;5.80;1.30;;;;;;;2.27;79.78;95273.00;110635;1274;22326;-77
2024/01/02 02:22:52;;;;;;;3.00;1.40;;;;;;;2.28;79.61;95277.88;110580;1274;22109;-77
2024/01/02 02:25:20;;;;;;;7.10;1.30;;;;;;;2.30;79.54;95280.85;110568;1274;22133;-77
2024/01/02 02:27:48;;;;;;;4.20;1.50;;;;;;;2.30;79.53;95281.54;110505;1274;22111;-78
2024/01/02 02:30:17;;;;;;;3.50;1.30;;;;;;;2.29;79.55;95282.41;110548;1274;22267;-77
2024/01/02 02:32:45;;;;;;;4.40;1.40;;;;;;;2.26;79.47;95279.09;110505;1274;22122;-77
2024/01/02 02:35:13;;;;;;;7.50;1.80;;;;;;;2.24;79.59;95283.05;110582;1268;22127;-77
2024/01/02 02:37:42;;;;;;;3.60;1.90;;;;;;;2.22;79.64;95277.83;110509;1274;22249;-77
2024/01/02 02:40:10;;;;;;;6.30;1.50;;;;;;;2.23;79.45;95266.55;110524;1274;22604;-77
2024/01/02 02:42:38;;;;;;;4.40;1.80;;;;;;;2.32;78.80;95270.80;110511;1274;22115;-77
2024/01/02 02:45:07;;;;;;;5.80;1.70;;;;;;;2.44;78.54;95263.09;110550;1274;22275;-77
2024/01/02 02:47:35;;;;;;;2.80;1.20;;;;;;;2.50;78.24;95258.09;110560;1274;22147;-77
2024/01/02 02:50:07;;;;;;;4.30;1.20;;;;;;;2.56;78.36;95260.56;110518;1274;22275;-77
2024/01/02 02:52:36;;;;;;;4.30;1.50;;;;;;;2.61;78.32;95258.00;110579;1274;22252;-77
2024/01/02 02:55:04;;;;;;;4.10;1.50;;;;;;;2.64;78.21;95247.93;110534;1274;22381;-77
2024/01/02 02:57:33;;;;;;;3.40;1.30;;;;;;;2.65;78.34;95254.02;110582;1274;22887;-77
2024/01/02 03:00:03;;;;;;;3.40;1.30;;;;;;;2.64;78.50;95255.41;110589;1274;22171;-77
2024/01/02 03:02:32;;;;;;;4.50;1.40;;;;;;;2.64;78.69;95260.09;110577;1271;22129;-78
2024/01/02 03:05:00;;;;;;;4.60;1.50;;;;;;;2.65;79.11;95253.50;110532;1274;22294;-77
2024/01/02 03:07:29;;;;;;;7.00;3.20;;;;;;;2.67;79.15;95257.34;110575;1274;22183;-77
2024/01/02 03:09:57;;;;;;;6.80;2.80;;;;;;;2.73;79.15;95254.59;110502;1274;22993;-77
2024/01/02 03:12:25;;;;;;;6.20;1.50;;;;;;;2.75;79.03;95256.86;110468;1274;22131;-77
2024/01/02 03:14:53;;;;;;;7.80;2.10;;;;;;;2.78;79.24;95254.45;110526;1274;22216;-77
2024/01/02 03:17:22;;;;;;;2.20;1.80;;;;;;;2.79;79.26;95247.85;110578;1274;22133;-78
2024/01/02 03:19:50;;;;;;;5.10;2.20;;;;;;;2.82;79.39;95245.79;110505;1258;22856;-77
2024/01/02 03:22:18;;;;;;;6.80;2.60;;;;;;;2.86;79.45;95248.92;110564;1274;22189;-77
2024/01/02 03:24:46;;;;;;;7.50;2.60;;;;;;;2.84;79.26;95250.66;110586;1274;22150;-77
2024/01/02 03:27:14;;;;;;;5.50;2.70;;;;;;;2.86;79.28;95248.40;110516;1274;22112;-77
2024/01/02 03:29:42;;;;;;;4.80;2.80;;;;;;;2.83;78.79;95248.91;110537;1274;22278;-77
2024/01/02 03:32:10;;;;;;;7.20;2.50;;;;;;;2.79;78.67;95250.13;110637;1274;22910;-77
2024/01/02 03:34:39;;;;;;;5.20;2.50;;;;;;;2.72;78.72;95246.60;110556;1274;22827;-77
2024/01/02 03:37:08;;;;;;;5.70;2.00;;;;;;;2.66;78.81;95249.16;110606;1274;22816;-78
2024/01/02 03:39:36;;;;;;;2.30;1.70;;;;;;;2.56;78.41;95245.27;110552;1274;22278;-77
2024/01/02 03:42:04;;;;;;;3.40;1.70;;;;;;;2.48;78.39;95244.88;110538;1274;22323;-77
2024/01/02 03:44:33;;;;;;;2.80;1.60;;;;;;;2.41;78.44;95242.40;110581;1274;22091;-77
2024/01/02 03:47:01;;;;;;;3.70;1.60;;;;;;;2.31;78.59;95246.85;110517;1274;22336;-77
2024/01/02 03:49:29;;;;;;;4.30;1.70;;;;;;;2.23;78.57;95242.43;110547;1274;22129;-77
2024/01/02 03:51:57;;;;;;;5.60;1.30;;;;;;;2.13;79.13;95242.02;110525;1274;22102;-77
2024/01/02 03:54:25;;;;;;;3.80;1.40;;;;;;;2.03;79.22;95248.70;110608;1274;22919;-77
2024/01/02 03:56:54;;;;;;;2.80;1.20;;;;;;;1.97;79.14;95251.77;110553;1274;22200;-77
2024/01/02 03:59:22;;;;;;;4.80;1.30;;;;;;;1.93;79.49;95250.33;110531;1274;22126;-77
2024/01/02 04:01:50;;;;;;;2.90;1.30;;;;;;;1.90;79.41;95256.90;110537;1274;22176;-77
2024/01/02 04:04:18;;;;;;;2.10;1.30;;;;;;;1.85;79.45;95254.44;110548;1274;22266;-77
2024/01/02 04:06:47;;;;;;;3.90;1.40;;;;;;;1.79;79.64;95256.80;110528;1274;22432;-77
2024/01/02 04:09:15;;;;;;;3.70;1.40;;;;;;;1.76;79.77;95249.84;110619;1274;22289;-76
2024/01/02 04:11:44;;;;;;;2.40;1.20;;;;;;;1.71;79.99;95251.19;110611;1274;22356;-77
2024/01/02 04:14:12;;;;;;;7.90;4.30;;;;;;;1.69;80.31;95248.39;110596;1274;22331;-78
2024/01/02 04:16:40;;;;;;;5.70;2.00;;;;;;;1.68;80.73;95246.81;110560;1274;22201;-77
2024/01/02 04:19:09;;;;;;;4.80;1.50;;;;;;;1.69;80.61;95243.18;110620;1274;22116;-77
2024/01/02 04:21:38;;;;;;;2.90;1.20;;;;;;;1.67;80.53;95241.95;110522;1274;22300;-77
2024/01/02 04:24:06;;;;;;;1.90;1.00;;;;;;;1.63;80.35;95243.13;110634;1274;22212;-77
2024/01/02 04:26:35;;;;;;;3.40;1.30;;;;;;;1.61;80.35;95242.06;110521;1274;22182;-77
2024/01/02 04:29:03;;;;;;;1.70;1.10;;;;;;;1.58;80.65;95234.59;110544;1274;22113;-77
2024/01/02 04:31:31;;;;;;;1.90;1.20;;;;;;;1.52;80.52;95240.59;110542;1274;22132;-77
2024/01/02 04:33:59;;;;;;;5.40;2.00;;;;;;;1.51;80.60;95242.80;110589;1274;22624;-77
2024/01/02 04:36:27;;;;;;;4.20;1.60;;;;;;;1.55;80.77;95243.38;110645;1274;22133;-78
2024/01/02 04:38:56;;;;;;;2.20;1.40;;;;;;;1.57;80.79;95240.47;110524;1274;22281;-77
2024/01/02 04:41:24;;;;;;;7.20;1.40;;;;;;;1.59;80.77;95242.90;110506;1274;22106;-77
2024/01/02 04:43:52;;;;;;;3.00;1.40;;;;;;;1.61;80.93;95240.33;110533;1274;23014;-78
2024/01/02 04:46:20;;;;;;;4.60;1.70;;;;;;;1.65;81.25;95241.92;110614;1274;22122;-78
2024/01/02 04:48:48;;;;;;;4.50;2.30;;;;;;;1.69;81.38;95237.98;110553;1274;22816;-77
2024/01/02 04:51:17;;;;;;;5.50;2.80;;;;;;;1.77;81.67;95234.76;110531;1274;22127;-77
2024/01/02 04:53:46;;;;;;;5.20;1.90;;;;;;;1.88;81.71;95234.51;110575;1274;22131;-78
2024/01/02 04:56:14;;;;;;;5.10;2.20;;;;;;;1.92;81.34;95239.07;110573;1274;22122;-77
2024/01/02 04:58:42;;;;;;;6.80;2.30;;;;;;;1.96;81.40;95239.09;110611;1274;22077;-77
2024/01/02 05:01:10;;;;;;;6.70;2.70;;;;;;;2.01;81.58;95244.70;110534;1274;22110;-78
2024/01/02 05:03:39;;;;;;;5.40;2.60;;;;;;;2.05;81.70;95245.59;110543;1274;22119;-77
2024/01/02 05:06:07;;;;;;;4.50;2.60;;;;;;;2.12;81.77;95247.20;110529;1274;22390;-78
2024/01/02 05:08:35;;;;;;;5.30;2.70;;;;;;;2.15;81.65;95256.25;110623;1274;22954;-78
2024/01/02 05:11:03;;;;;;;8.60;3.20;;;;;;;2.19;81.65;95257.51;110541;1270;22823;-78
2024/01/02 05:13:31;;;;;;;8.80;3.60;;;;;;;2.23;81.60;95260.30;110582;1274;22098;-78
2024/01/02 05:16:00;;;;;;;6.60;3.00;;;;;;;2.27;81.61;95262.42;110546;1274;22086;-78
2024/01/02 05:18:28;;;;;;;6.70;3.10;;;;;;;2.28;81.41;95257.39;110545;1274;22213;-78
2024/01/02 05:20:57;;;;;;;7.20;3.00;;;;;;;2.27;81.31;95252.88;110581;1262;22171;-77
2024/01/02 05:23:25;;;;;;;5.00;2.60;;;;;;;2.24;81.15;95255.46;110605;1274;22113;-77
2024/01/02 05:25:54;;;;;;;6.80;3.10;;;;;;;2.26;81.39;95256.00;110545;1274;22210;-77
2024/01/02 05:28:22;;;;;;;9.30;3.50;;;;;;;2.26;81.05;95257.91;110506;1274;22982;-77
2024/01/02 05:30:51;;;;;;;6.60;2.10;;;;;;;2.18;80.92;95262.01;110578;1274;22058;-77
2024/01/02 05:33:19;;;;;;;8.80;4.00;;;;;;;2.14;80.91;95255.73;110527;1274;22779;-77
2024/01/02 05:35:47;;;;;;;5.10;2.20;;;;;;;2.10;81.01;95255.17;110588;1274;22190;-78
2024/01/02 05:38:16;;;;;;;8.50;2.70;;;;;;;2.06;80.96;95253.58;110588;1274;23033;-78
2024/01/02 05:40:44;;;;;;;2.60;1.40;;;;;;;1.97;80.76;95257.48;110573;1274;22368;-77
2024/01/02 05:43:12;;;;;;;6.00;2.80;;;;;;;1.91;80.86;95261.60;110569;1274;23008;-78
2024/01/02 05:45:40;;;;;;;6.30;2.30;;;;;;;1.85;80.91;95264.84;110528;1274;22114;-77
2024/01/02 05:48:09;;;;;;;3.90;1.80;;;;;;;1.78;80.83;95265.11;110544;1274;22330;-77
2024/01/02 05:50:38;;;;;;;6.40;2.20;;;;;;;1.73;80.91;95263.84;110866;1266;22169;-78
2024/01/02 05:53:09;;;;;;;3.00;0.90;;;;;;;1.67;80.93;95259.63;110550;1274;22194;-77
2024/01/02 05:55:37;;;;;;;1.80;1.30;;;;;;;1.61;80.88;95266.86;110518;1274;22154;-77
2024/01/02 05:58:05;;;;;;;2.20;1.20;;;;;;;1.54;81.19;95273.70;110614;1274;22178;-78
2024/01/02 06:00:34;;;;;;;3.20;1.00;;;;;;;1.46;81.35;95277.61;110529;1274;22337;-78
2024/01/02 06:03:03;;;;;;;2.10;0.90;;;;;;;1.38;81.37;95279.77;110565;1274;22287;-77
2024/01/02 06:05:31;;;;;;;3.00;1.20;;;;;;;1.35;81.46;95280.09;110606;1274;22112;-78
2024/01/02 06:07:59;;;;;;;1.90;1.40;;;;;;;1.34;81.50;95278.86;110557;1274;22142;-78
2024/01/02 06:10:28;;;;;;;3.90;1.50;;;;;;;1.31;81.57;95280.73;110628;1274;22104;-77
2024/01/02 06:12:57;;;;;;;7.10;2.90;;;;;;;1.29;81.65;95282.26;110619;1274;22105;-77
2024/01/02 06:15:26;;;;;;;4.70;2.60;;;;;;;1.29;81.92;95287.29;110533;1274;22433;-77
2024/01/02 06:17:54;;;;;;;3.80;2.10;;;;;;;1.31;82.66;95296.68;110545;1268;22165;-78
2024/01/02 06:20:22;;;;;;;4.50;1.30;;;;;;;1.28;82.13;95298.20;110647;1274;22125;-77
2024/01/02 06:22:51;;;;;;;3.70;2.10;;;;;;;1.25;81.92;95308.21;110527;1274;22145;-77
2024/01/02 06:25:19;;;;;;;5.40;2.30;;;;;;;1.21;82.54;95308.67;110666;1274;22223;-77
2024/01/02 06:27:47;;;;;;;3.60;1.90;;;;;;;1.17;82.38;95316.42;110512;1274;22855;-77
2024/01/02 06:30:17;;;;;;;4.70;1.70;;;;;;;1.16;82.31;95313.63;110638;1263;22145;-77
2024/01/02 06:32:45;;;;;;;3.40;1.30;;;;;;;1.13;82.25;95313.08;110529;1274;22199;-77
2024/01/02 06:35:14;;;;;;;5.90;1.40;;;;;;;1.08;82.68;95309.36;110539;1274;22312;-78
2024/01/02 06:37:42;;;;;;;5.60;2.00;;;;;;;1.02;82.49;95311.20;110597;1274;22297;-77
2024/01/02 06:40:10;;;;;;;4.30;2.00;;;;;;;0.99;82.46;95317.39;110561;1274;22116;-77
2024/01/02 06:42:39;;;;;;;4.00;1.90;;;;;;;0.94;82.91;95321.31;110569;1274;22101;-77
2024/01/02 06:45:08;;;;;;;6.80;3.60;;;;;;;0.90;82.70;95318.82;110611;1274;22095;-77
2024/01/02 06:47:37;;;;;;;5.90;1.70;;;;;;;0.90;82.73;95320.38;110589;1274;22140;-78
2024/01/02 06:50:05;;;;;;;4.80;2.10;;;;;;;0.89;82.91;95315.86;110631;1274;22280;-78
2024/01/02 06:52:34;;;;;;;3.30;1.50;;;;;;;0.87;82.93;95317.05;110623;1274;22120;-77
2024/01/02 06:55:04;;;;;;;3.10;1.00;;;;;;;0.89;83.23;95315.70;110564;1274;22851;-77
2024/01/02 06:57:32;;;;;;;6.70;2.30;;;;;;;0.86;83.19;95320.52;110585;1274;22126;-77
2024/01/02 07:00:00;;;;;;;2.00;1.10;;;;;;;0.87;83.44;95321.90;110587;1274;22215;-77
2024/01/02 07:02:31;;;;;;;3.80;1.40;;;;;;;0.85;83.58;95322.05;110611;1274;22870;-77
2024/01/02 07:05:00;;;;;;;3.50;1.60;;;;;;;0.84;83.77;95319.09;110578;1274;22175;-77
2024/01/02 07:07:28;;;;;;;3.30;1.60;;;;;;;0.82;83.95;95316.13;110553;1274;22116;-77
2024/01/02 07:09:56;;;;;;;3.60;1.70;;;;;;;0.87;84.20;95317.75;110599;1274;22149;-77
2024/01/02 07:12:24;;;;;;;2.80;1.70;;;;;;;0.91;84.22;95315.71;110571;1270;22230;-77
2024/01/02 07:14:53;;;;;;;2.60;1.60;;;;;;;0.89;84.15;95319.67;110591;1274;22134;-77
2024/01/02 07:17:21;;;;;;;3.60;1.00;;;;;;;0.91;84.28;95314.00;110591;1274;22137;-77
2024/01/02 07:19:51;;;;;;;4.20;1.70;;;;;;;0.93;84.27;95318.19;110579;1274;22307;-77
2024/01/02 07:22:19;;;;;;;3.30;1.40;;;;;;;0.94;83.93;95322.50;110635;1264;22152;-77
2024/01/02 07:24:48;;;;;;;6.70;3.50;;;;;;;0.96;84.11;95318.55;110560;1274;22110;-77
2024/01/02 07:27:16;;;;;;;5.90;3.20;;;;;;;0.97;84.00;95315.27;110573;1274;22139;-77
2024/01/02 07:29:44;;;;;;;4.60;1.50;;;;;;;0.93;83.83;95313.67;110582;1274;22782;-77
2024/01/02 07:32:13;;;;;;;2.40;1.30;;;;;;;0.95;84.18;95312.48;110612;1274;22136;-77
2024/01/02 07:34:41;;;;;;;3.60;1.70;;;;;;;0.95;84.09;95310.92;110567;1274;22368;-77
2024/01/02 07:37:11;;;;;;;6.20;2.40;;;;;;;0.99;84.03;95304.58;110592;1274;22307;-77
2024/01/02 07:39:39;;;;;;;6.10;1.40;;;;;;;1.00;83.99;95298.88;110572;1274;22211;-77
2024/01/02 07:42:08;;;;;;;2.70;1.60;;;;;;;1.05;84.16;95292.89;110591;1274;22790;-77
2024/01/02 07:44:37;;;;;;;3.90;1.80;;;;;;;1.03;83.95;95290.27;110540;1274;22135;-77
2024/01/02 07:47:06;;;;;;;3.10;1.70;;;;;;;1.10;84.36;95287.92;110535;1274;22149;-77
2024/01/02 07:49:34;;;;;;;3.60;1.90;;;;;;;1.24;84.53;95283.77;110585;1274;22254;-77
2024/01/02 07:52:03;;;;;;;6.90;3.00;;;;;;;1.38;84.40;95284.45;110615;1274;22122;-77
2024/01/02 07:54:36;;;;;;;2.90;1.80;;;;;;;1.44;83.85;95288.68;110643;1274;22909;-77
2024/01/02 07:57:05;;;;;;;6.70;2.20;;;;;;;1.40;83.05;95292.44;110587;1274;22255;-77
2024/01/02 07:59:36;;;;;;;4.50;2.00;;;;;;;1.45;83.73;95287.83;110601;1273;22183;-77
2024/01/02 08:02:05;;;;;;;5.90;2.30;;;;;;;1.54;83.43;95296.23;110659;1274;22124;-77
2024/01/02 08:04:34;;;;;;;4.90;2.00;;;;;;;1.52;83.11;95295.00;110574;1274;22106;-77
2024/01/02 08:07:02;;;;;;;6.00;2.40;;;;;;;1.58;83.47;95288.48;110608;1274;22276;-77
2024/01/02 08:09:30;;;;;;;10.00;5.00;;;;;;;1.68;83.51;95286.69;110546;1274;22193;-77
2024/01/02 08:11:58;;;;;;;10.00;4.90;;;;;;;1.83;83.48;95289.27;110583;1274;22900;-77
2024/01/02 08:14:26;;;;;;;11.00;4.40;;;;;;;1.99;83.44;95287.70;110541;1274;22551;-77
2024/01/02 08:16:55;;;;;;;10.80;4.10;;;;;;;2.15;83.30;95277.24;110623;1269;22867;-77
2024/01/02 08:19:23;;;;;;;7.00;3.30;;;;;;;2.28;82.94;95274.92;110608;1274;22163;-77
2024/01/02 08:21:51;;;;;;;9.30;3.30;;;;;;;2.34;82.28;95270.46;110591;1274;22479;-77
2024/01/02 08:24:19;;;;;;;5.40;3.20;;;;;;;2.40;82.26;95268.60;110521;1274;22116;-77
2024/01/02 08:26:48;;;;;;;5.30;2.60;;;;;;;2.54;82.22;95268.87;110589;1274;22315;-77
2024/01/02 08:29:16;;;;;;;4.20;1.70;;;;;;;2.70;82.43;95269.34;110558;1274;23090;-77
2024/01/02 08:31:44;;;;;;;5.60;2.40;;;;;;;2.88;81.61;95272.73;110603;1274;22851;-77
2024/01/02 08:34:13;;;;;;;9.00;2.70;;;;;;;2.96;80.93;95273.30;110563;1274;22203;-77
2024/01/02 08:36:42;;;;;;;13.20;5.90;;;;;;;3.03;80.97;95271.27;110595;1274;22113;-77
2024/01/02 08:39:10;;;;;;;8.60;4.10;;;;;;;3.18;80.98;95267.86;110606;1274;22147;-77
2024/01/02 08:41:38;;;;;;;3.80;1.50;;;;;;;3.38;80.71;95270.39;110574;1274;22133;-77
2024/01/02 08:44:07;;;;;;;8.50;4.40;;;;;;;3.60;80.14;95267.67;110639;1274;22842;-77
2024/01/02 08:46:35;;;;;;;5.30;2.10;;;;;;;3.77;78.54;95264.75;110583;1274;22105;-77
2024/01/02 08:49:06;;;;;;;3.90;2.40;;;;;;;3.90;77.74;95266.16;110583;1274;22097;-77
2024/01/02 08:51:35;;;;;;;9.20;4.50;;;;;;;4.00;78.28;95259.92;110600;1274;22306;-77
2024/01/02 08:54:03;;;;;;;8.40;3.80;;;;;;;4.08;78.00;95258.55;110541;1274;22450;-77
2024/01/02 08:56:31;;;;;;;9.00;4.30;;;;;;;4.15;77.39;95256.46;110635;1274;22138;-76
2024/01/02 08:58:59;;;;;;;10.70;3.40;;;;;;;4.24;76.34;95253.34;110574;1274;22280;-77
2024/01/02 09:01:28;;;;;;;6.00;2.20;;;;;;;4.39;75.93;95252.11;110573;1274;22162;-77
2024/01/02 09:03:56;;;;;;;4.30;1.70;;;;;;;4.53;73.78;95249.48;110594;1274;22339;-77
2024/01/02 09:06:25;;;;;;;5.20;1.40;;;;;;;4.67;70.60;95252.28;110624;1271;22178;-77
2024/01/02 09:08:57;;;;;;;4.90;1.40;;;;;;;4.82;70.44;95252.94;110613;1274;22215;-77
2024/01/02 09:11:25;;;;;;;3.80;1.20;;;;;;;4.93;68.59;95254.48;110629;1274;22197;-76
2024/01/02 09:13:53;;;;;;;4.60;0.90;;;;;;;5.01;66.71;95249.41;110562;1274;22165;-77
2024/01/02 09:16:22;;;;;;;6.10;1.10;;;;;;;5.07;64.37;95244.34;110558;1274;22239;-77
2024/01/02 09:18:50;;;;;;;7.80;4.40;;;;;;;5.12;64.91;95240.14;110564;1274;22119;-77
2024/01/02 09:21:18;;;;;;;29.30;14.80;;;;;;;5.19;64.50;95237.67;110582;1274;22121;-77
2024/01/02 09:23:46;;;;;;;18.40;10.90;;;;;;;5.27;63.47;95239.91;110572;1274;22120;-77
2024/01/02 09:26:19;;;;;;;12.90;7.40;;;;;;;5.32;62.65;95233.61;110544;1274;22130;-77
2024/01/02 09:28:48;;;;;;;9.90;3.30;;;;;;;5.36;62.17;95241.63;110644;1274;22192;-77
2024/01/02 09:31:18;;;;;;;14.30;8.10;;;;;;;5.43;61.41;95236.52;110634;1274;22110;-77
2024/01/02 09:33:46;;;;;;;6.80;2.70;;;;;;;5.41;60.08;95236.54;110587;1274;22963;-77
2024/01/02 09:36:15;;;;;;;2.50;0.70;;;;;;;5.46;60.86;95230.40;110550;1274;22113;-77
2024/01/02 09:38:43;;;;;;;6.00;1.40;;;;;;;5.49;60.07;95229.00;110539;1274;23024;-77
2024/01/02 09:41:45;;;;;;;3.50;1.10;;;;;;;5.56;60.14;95219.73;110568;1274;22130;-77
2024/01/02 09:44:32;;;;;;;6.60;2.70;;;;;;;5.63;60.60;95215.67;110547;1274;22928;-77
2024/01/02 09:47:38;;;;;;;3.50;0.80;;;;;;;5.74;60.72;95213.16;110575;1274;22179;-77
2024/01/02 09:50:12;;;;;;;5.40;2.00;;;;;;;5.88;59.94;95207.14;110606;1274;22115;-77
2024/01/02 09:52:53;;;;;;;3.50;0.80;;;;;;;5.97;58.14;95213.23;110576;1274;22769;-77
2024/01/02 09:55:30;;;;;;;4.80;1.00;;;;;;;6.02;58.00;95213.36;110533;1274;22128;-76
2024/01/02 09:58:12;;;;;;;1.00;0.50;;;;;;;5.96;58.70;95214.44;110631;1274;22156;-77
2024/01/02 10:01:05;;;;;;;4.40;0.60;;;;;;;5.74;57.69;95219.80;110569;1274;22244;-77
2024/01/02 10:03:59;;;;;;;3.50;1.30;;;;;;;5.54;58.00;95217.11;110541;1274;22148;-77
2024/01/02 10:06:46;;;;;;;;;;;;;;;5.39;58.73;95214.56;110641;1274;22420;-77
2024/01/02 10:09:51;;;;;;;4.30;2.10;;;;;;;5.25;58.28;95218.82;110574;1274;22847;-77
2024/01/02 10:12:25;;;;;;;2.70;1.00;;;;;;;5.15;58.23;95213.80;110542;1274;22192;-76
2024/01/02 10:15:03;;;;;;;6.20;3.00;;;;;;;5.16;58.58;95207.18;110599;1274;22360;-77
2024/01/02 10:17:51;;;;;;;3.10;1.20;;;;;;;5.22;58.77;95207.50;110631;1274;22114;-77
2024/01/02 10:20:49;;;;;;;3.50;1.10;;;;;;;5.40;59.71;95201.31;110547;1274;22183;-76
2024/01/02 10:23:36;;;;;;;3.20;0.60;;;;;;;5.73;58.85;95188.92;110590;1274;22286;-77
2024/01/02 10:26:08;;;;;;;1.40;0.70;;;;;;;6.09;57.73;95181.01;110546;1274;22144;-77
2024/01/02 10:28:37;;;;;;;4.00;0.70;;;;;;;6.39;57.06;95180.23;110544;1274;22132;-77
2024/01/02 10:31:30;;;;;;;2.40;1.00;;;;;;;6.71;55.85;95170.66;110579;1274;22246;-77
2024/01/02 10:34:19;;;;;;;3.30;0.70;;;;;;;7.24;55.65;95168.30;110583;1274;22996;-77
2024/01/02 10:37:06;;;;;;;4.80;0.90;;;;;;;7.68;53.35;95164.38;110549;1274;22154;-77
2024/01/02 10:39:45;;;;;;;1.00;0.70;;;;;;;8.08;51.88;95153.27;110616;1274;22131;-76
2024/01/02 10:42:32;;;;;;;2.50;0.50;;;;;;;8.47;51.80;95159.48;110605;1274;22306;-77
2024/01/02 10:45:00;;;;;;;3.60;0.80;;;;;;;8.78;49.17;95151.05;110538;1274;22756;-76
2024/01/02 10:47:46;;;;;;;1.40;0.60;;;;;;;9.06;48.60;95147.70;110546;1274;22131;-76
2024/01/02 10:50:23;;;;;;;1.40;0.50;;;;;;;9.29;47.95;95136.70;110593;1274;22197;-77
2024/01/02 10:53:42;;;;;;;1.50;0.80;;;;;;;9.62;47.54;95132.47;110580;1274;22107;-77
2024/01/02 10:56:32;;;;;;;3.20;0.50;;;;;;;10.07;47.17;95132.50;110421;1274;22436;-77
2024/01/02 10:59:12;;;;;;;2.10;0.60;;;;;;;10.47;46.04;95126.27;110550;1274;22299;-77
2024/01/02 11:01:46;;;;;;;4.10;1.00;;;;;;;10.61;44.44;95125.91;110605;1274;23069;-77
2024/01/02 11:04:32;;;;;;;2.10;0.60;;;;;;;10.59;44.55;95124.55;110591;1274;22136;-77
2024/01/02 11:07:06;;;;;;;2.20;0.80;;;;;;;10.40;44.12;95130.83;110560;1274;22112;-77
2024/01/02 11:09:57;;;;;;;;;;;;;;;10.58;43.98;95128.26;110575;1274;23000;-78
2024/01/02 11:12:36;;;;;;;3.10;1.00;;;;;;;10.75;45.01;95127.81;110559;1266;22145;-77
2024/01/02 11:15:11;;;;;;;5.10;0.80;;;;;;;10.99;43.83;95127.18;110522;1274;22195;-77
2024/01/02 11:17:41;;;;;;;1.90;0.60;;;;;;;11.15;43.42;95124.63;110602;1274;22260;-77
2024/01/02 11:20:18;;;;;;;6.20;2.90;;;;;;;11.32;42.89;95121.48;110537;1274;22246;-76
2024/01/02 11:23:02;;;;;;;13.60;6.50;;;;;;;11.27;42.17;95125.52;110595;1275;22161;-76
2024/01/02 11:25:32;;;;;;;7.70;3.60;;;;;;;11.32;42.28;95114.27;110566;1274;22145;-76
2024/01/02 11:28:12;;;;;;;4.70;1.80;;;;;;;11.38;42.60;95110.57;110615;1274;22344;-76
2024/01/02 11:30:47;;;;;;;5.00;1.90;;;;;;;11.57;42.10;95105.08;110590;1274;22107;-76
2024/01/02 11:33:37;;;;;;;4.90;2.60;;;;;;;11.77;41.94;95104.10;110602;1274;22112;-77
2024/01/02 11:36:06;;;;;;;2.10;1.00;;;;;;;11.74;41.12;95098.02;110566;1274;22121;-77
2024/01/02 11:38:51;;;;;;;2.80;1.10;;;;;;;11.95;41.15;95099.00;110501;1274;22134;-76
2024/01/02 11:41:28;;;;;;;2.10;0.80;;;;;;;11.83;40.46;95099.88;110575;1275;22836;-76
2024/01/02 11:44:08;;;;;;;3.10;0.80;;;;;;;11.76;40.63;95099.73;110548;1274;22121;-76
2024/01/02 11:46:43;;;;;;;2.60;0.80;;;;;;;11.45;40.48;95091.15;110549;1274;22252;-76
2024/01/02 11:49:22;;;;;;;3.00;0.90;;;;;;;11.15;41.95;95091.68;110497;1274;22202;-77